Time;durP1;ratioP1;P1;durP2;ratioP2;P2;SDS_P1;SDS_P2;PMS_P1;PMS_P2;Temp;Humidity;BMP_temperature;BMP_pressure;BME280_temperature;BME280_humidity;BME280_pressure;Samples;Min_cycle;Max_cycle;Signal;HPM_P1;HPM_P2
2022/09/05 00:01:58;;;;;;;5.85;3.42;;;18.40;74.80;;;;;;5019037;28;20404;-79
2022/09/05 00:04:31;;;;;;;3.67;3.38;;;18.40;74.10;;;;;;5016611;28;20038;-79
2022/09/05 00:07:16;;;;;;;5.25;3.92;;;18.40;74.10;;;;;;5006760;28;20389;-79
2022/09/05 00:10:00;;;;;;;5.30;3.72;;;18.40;74.00;;;;;;5025613;28;20473;-79
2022/09/05 00:12:26;;;;;;;5.70;4.28;;;18.40;73.40;;;;;;5032385;28;20041;-79
2022/09/05 00:15:24;;;;;;;4.47;4.10;;;18.30;74.20;;;;;;5034982;28;20083;-79
2022/09/05 00:18:05;;;;;;;4.82;4.13;;;18.30;73.50;;;;;;5032365;28;20029;-79
2022/09/05 00:21:08;;;;;;;4.18;3.78;;;18.20;74.10;;;;;;5022070;28;20029;-80
2022/09/05 00:23:59;;;;;;;5.50;4.10;;;18.10;74.80;;;;;;5017118;28;20033;-80
2022/09/05 00:26:31;;;;;;;5.05;4.18;;;18.10;73.90;;;;;;5019290;28;20034;-80
2022/09/05 00:29:20;;;;;;;4.15;3.85;;;18.20;73.60;;;;;;5008427;28;20053;-79
2022/09/05 00:31:57;;;;;;;4.80;4.03;;;18.10;73.80;;;;;;5016901;28;20037;-80
2022/09/05 00:34:46;;;;;;;4.78;3.75;;;18.10;73.60;;;;;;5016329;28;20120;-80
2022/09/05 00:37:12;;;;;;;4.68;4.00;;;18.10;73.70;;;;;;5012289;28;20511;-79
2022/09/05 00:39:38;;;;;;;5.43;4.07;;;17.90;75.80;;;;;;5006706;28;20073;-79
2022/09/05 00:42:12;;;;;;;7.78;4.35;;;17.80;75.90;;;;;;5031887;28;20091;-79
2022/09/05 00:44:50;;;;;;;6.05;4.22;;;17.80;76.10;;;;;;5002300;28;20088;-79
2022/09/05 00:47:32;;;;;;;4.40;3.90;;;17.80;76.30;;;;;;5003236;28;20041;-80
2022/09/05 00:49:59;;;;;;;6.80;4.18;;;17.80;75.50;;;;;;5017646;28;20041;-80
2022/09/05 00:52:39;;;;;;;6.03;3.95;;;17.80;76.10;;;;;;5001270;28;20079;-79
2022/09/05 00:55:26;;;;;;;4.93;4.40;;;17.70;76.70;;;;;;5018582;28;20060;-79
2022/09/05 00:58:31;;;;;;;5.00;4.25;;;17.50;78.00;;;;;;5003444;28;20025;-79
2022/09/05 01:00:57;;;;;;;4.13;3.83;;;17.50;79.00;;;;;;5017148;28;20508;-80
2022/09/05 01:03:50;;;;;;;7.28;4.85;;;17.50;79.50;;;;;;5006558;28;20025;-79
2022/09/05 01:06:34;;;;;;;6.80;5.03;;;17.50;78.40;;;;;;5030729;28;20048;-81
2022/09/05 01:09:08;;;;;;;5.28;4.78;;;17.40;80.30;;;;;;5021791;28;20093;-79
2022/09/05 01:11:45;;;;;;;6.63;5.10;;;17.30;81.10;;;;;;4998687;28;20783;-84
2022/09/05 01:14:38;;;;;;;7.03;4.60;;;17.30;79.40;;;;;;5016630;28;20099;-84
2022/09/05 01:17:29;;;;;;;7.35;4.93;;;17.30;80.30;;;;;;5017881;28;20565;-84
2022/09/05 01:19:54;;;;;;;8.43;4.40;;;17.20;81.20;;;;;;5003909;28;20518;-84
2022/09/05 01:22:44;;;;;;;5.68;4.55;;;17.20;81.10;;;;;;5023049;28;20049;-85
2022/09/05 01:25:18;;;;;;;6.32;4.35;;;17.20;81.60;;;;;;5022444;28;20037;-83
2022/09/05 01:28:12;;;;;;;5.03;4.38;;;17.10;83.90;;;;;;5016058;28;20529;-84
2022/09/05 01:30:57;;;;;;;4.55;4.20;;;17.10;82.60;;;;;;5015659;28;20037;-84
2022/09/05 01:33:55;;;;;;;4.78;4.35;;;17.00;83.50;;;;;;5021267;28;20056;-83
2022/09/05 01:36:39;;;;;;;5.35;4.85;;;17.00;84.50;;;;;;5023169;28;20022;-84
2022/09/05 01:39:42;;;;;;;5.72;4.60;;;17.00;86.10;;;;;;5022629;28;20025;-84
2022/09/05 01:42:32;;;;;;;5.53;5.00;;;17.00;87.30;;;;;;5019118;28;20388;-83
2022/09/05 01:45:18;;;;;;;7.15;5.05;;;17.00;87.30;;;;;;5007248;28;20076;-84
2022/09/05 01:48:25;;;;;;;4.97;4.53;;;16.90;89.10;;;;;;5006681;28;20022;-84
2022/09/05 01:50:57;;;;;;;5.70;5.18;;;16.80;90.20;;;;;;4972089;28;20039;-83
2022/09/05 01:53:24;;;;;;;4.93;4.40;;;16.80;93.40;;;;;;5014191;28;20424;-83
2022/09/05 01:55:58;;;;;;;7.88;4.40;;;16.80;91.30;;;;;;5019102;28;20037;-83
2022/09/05 01:58:45;;;;;;;5.50;4.68;;;16.70;92.60;;;;;;5021987;28;20032;-84
2022/09/05 02:01:26;;;;;;;4.97;4.43;;;16.70;94.40;;;;;;5017661;28;20481;-84
2022/09/05 02:04:27;;;;;;;5.88;4.78;;;16.80;94.50;;;;;;5016481;28;20045;-84
2022/09/05 02:07:07;;;;;;;7.63;5.05;;;16.80;94.00;;;;;;5018088;28;20030;-84
2022/09/05 02:10:07;;;;;;;5.53;5.03;;;16.90;92.40;;;;;;4989770;28;20033;-83
2022/09/05 02:12:57;;;;;;;5.97;5.25;;;16.90;91.30;;;;;;5008459;28;20061;-84
2022/09/05 02:15:25;;;;;;;5.40;4.90;;;16.90;91.60;;;;;;5008323;28;20087;-79
2022/09/05 02:17:52;;;;;;;5.95;4.80;;;16.90;96.20;;;;;;5017095;28;20026;-79
2022/09/05 02:20:24;;;;;;;9.82;5.22;;;16.90;96.80;;;;;;5003089;28;20108;-79
2022/09/05 02:22:55;;;;;;;6.10;4.70;;;16.90;98.80;;;;;;5022564;28;20559;-82
2022/09/05 02:25:26;;;;;;;7.28;4.53;;;16.90;93.10;;;;;;5022268;28;20100;-84
2022/09/05 02:27:59;;;;;;;5.93;4.78;;;16.90;93.40;;;;;;5004899;28;20029;-84
2022/09/05 02:30:25;;;;;;;6.45;5.38;;;16.90;93.30;;;;;;5003569;28;20038;-84
2022/09/05 02:33:02;;;;;;;5.15;4.65;;;16.90;94.90;;;;;;4985415;28;20129;-84
2022/09/05 02:35:32;;;;;;;5.05;4.63;;;16.90;93.10;;;;;;5020407;28;20030;-84
2022/09/05 02:38:05;;;;;;;5.55;5.03;;;17.00;92.60;;;;;;5001155;28;20474;-83
2022/09/05 02:41:15;;;;;;;4.97;4.57;;;17.00;94.10;;;;;;5002705;28;20120;-85
2022/09/05 02:43:45;;;;;;;5.80;4.80;;;17.00;93.20;;;;;;4956592;28;20103;-85
2022/09/05 02:46:37;;;;;;;5.78;5.00;;;17.10;93.00;;;;;;4928986;28;20483;-84
2022/09/05 02:49:15;;;;;;;4.78;4.38;;;17.10;94.20;;;;;;4996985;28;20026;-79
2022/09/05 02:51:45;;;;;;;5.07;4.53;;;17.10;93.20;;;;;;5000816;28;20034;-78
2022/09/05 02:54:16;;;;;;;6.43;4.30;;;17.10;93.00;;;;;;5004924;28;20032;-79
2022/09/05 02:57:11;;;;;;;5.45;4.93;;;17.10;94.50;;;;;;4995601;28;20034;-79
2022/09/05 02:59:39;;;;;;;5.30;4.40;;;17.10;92.40;;;;;;5031219;28;20087;-79
2022/09/05 03:02:40;;;;;;;6.07;4.70;;;17.20;94.00;;;;;;5024498;28;20449;-79
2022/09/05 03:05:11;;;;;;;4.45;3.97;;;17.20;93.30;;;;;;5013718;28;20053;-79
2022/09/05 03:07:53;;;;;;;4.75;4.35;;;17.20;94.20;;;;;;5025698;28;20358;-78
2022/09/05 03:10:42;;;;;;;4.45;4.07;;;17.20;94.80;;;;;;5025318;28;20585;-78
2022/09/05 03:13:26;;;;;;;4.72;4.25;;;17.20;95.20;;;;;;5014963;28;20480;-79
2022/09/05 03:16:29;;;;;;;5.03;4.20;;;17.20;93.90;;;;;;5036707;28;20516;-79
2022/09/05 03:19:31;;;;;;;6.78;4.22;;;17.20;94.50;;;;;;5017659;28;20025;-80
2022/09/05 03:22:27;;;;;;;4.82;4.43;;;17.30;93.50;;;;;;5016878;28;20022;-78
2022/09/05 03:24:58;;;;;;;5.30;4.67;;;17.30;94.70;;;;;;5021533;28;21092;-78
2022/09/05 03:28:02;;;;;;;4.90;4.40;;;17.30;92.20;;;;;;5017409;28;20268;-79
2022/09/05 03:31:05;;;;;;;4.50;4.10;;;17.30;92.90;;;;;;5023559;28;20374;-78
2022/09/05 03:33:46;;;;;;;5.70;4.43;;;17.30;92.70;;;;;;5011825;28;20034;-79
2022/09/05 03:36:20;;;;;;;7.63;4.80;;;17.30;93.80;;;;;;5009784;28;20032;-79
2022/09/05 03:39:23;;;;;;;5.95;4.25;;;17.30;92.90;;;;;;5021418;28;20091;-78
2022/09/05 03:42:00;;;;;;;5.20;4.53;;;17.40;93.10;;;;;;5022590;28;20029;-78
2022/09/05 03:44:47;;;;;;;5.07;4.50;;;17.30;93.00;;;;;;5023808;28;20034;-78
2022/09/05 03:47:50;;;;;;;6.20;4.65;;;17.30;92.50;;;;;;5018219;28;20396;-79
2022/09/05 03:50:36;;;;;;;5.63;4.45;;;17.30;94.50;;;;;;5035266;28;20096;-78
2022/09/05 03:53:36;;;;;;;4.82;4.10;;;17.30;97.10;;;;;;5036348;28;20014;-78
2022/09/05 03:56:40;;;;;;;7.28;4.80;;;17.30;96.80;;;;;;5019884;28;20034;-78
2022/09/05 03:59:09;;;;;;;6.30;4.07;;;17.20;95.20;;;;;;5018034;28;20025;-79
2022/09/05 04:01:42;;;;;;;3.67;3.38;;;17.30;96.40;;;;;;5026603;28;20435;-79
2022/09/05 04:04:20;;;;;;;4.25;3.83;;;17.30;97.40;;;;;;5019501;28;20025;-78
2022/09/05 04:06:57;;;;;;;5.18;4.30;;;17.20;96.90;;;;;;5036768;28;20033;-78
2022/09/05 04:09:59;;;;;;;5.43;3.95;;;17.20;97.80;;;;;;5006274;28;20092;-79
2022/09/05 04:12:25;;;;;;;5.72;4.22;;;17.10;96.70;;;;;;4953621;28;20045;-78
2022/09/05 04:15:11;;;;;;;4.95;4.43;;;17.10;96.70;;;;;;5006813;28;20530;-79
2022/09/05 04:17:42;;;;;;;4.30;3.90;;;17.00;96.80;;;;;;5021294;28;20359;-78
2022/09/05 04:20:36;;;;;;;4.70;3.97;;;16.90;96.80;;;;;;4995955;28;20496;-79
2022/09/05 04:23:11;;;;;;;7.13;4.20;;;16.90;97.40;;;;;;5016011;28;20818;-78
2022/09/05 04:25:43;;;;;;;4.60;4.20;;;16.80;97.90;;;;;;5017787;28;20030;-78
2022/09/05 04:28:46;;;;;;;6.47;4.30;;;16.90;99.90;;;;;;5003136;28;20033;-78
2022/09/05 04:31:33;;;;;;;4.75;4.18;;;16.90;99.50;;;;;;4991541;28;20033;-79
2022/09/05 04:34:05;;;;;;;4.68;4.15;;;16.90;98.30;;;;;;5018820;28;20199;-78
2022/09/05 04:36:35;;;;;;;4.88;4.00;;;16.80;99.60;;;;;;5000888;28;20030;-79
2022/09/05 04:39:18;;;;;;;5.68;4.18;;;16.80;99.80;;;;;;5019870;28;20041;-79
2022/09/05 04:41:49;;;;;;;4.70;4.30;;;16.80;99.90;;;;;;5024158;28;20558;-79
2022/09/05 04:44:25;;;;;;;4.30;3.45;;;16.70;98.30;;;;;;5009269;28;20584;-79
2022/09/05 04:46:53;;;;;;;4.53;4.13;;;16.60;97.90;;;;;;5009386;28;20025;-79
2022/09/05 04:49:24;;;;;;;5.63;5.00;;;16.60;99.90;;;;;;5003470;28;20389;-78
2022/09/05 04:52:05;;;;;;;4.95;4.47;;;16.60;99.00;;;;;;5020415;28;20037;-78
2022/09/05 04:54:50;;;;;;;5.40;4.68;;;16.50;98.90;;;;;;5004208;28;20505;-78
2022/09/05 04:57:28;;;;;;;4.97;4.40;;;16.50;99.90;;;;;;5022785;28;20029;-78
2022/09/05 05:00:05;;;;;;;8.30;7.50;;;16.50;99.90;;;;;;5002467;28;20161;-79
2022/09/05 05:02:37;;;;;;;10.63;9.57;;;16.50;99.90;;;;;;5003165;28;20041;-78
2022/09/05 05:05:08;;;;;;;7.85;6.93;;;16.50;99.90;;;;;;5024557;28;20040;-79
2022/09/05 05:07:47;;;;;;;6.90;6.20;;;16.50;99.90;;;;;;5016829;28;20378;-78
2022/09/05 05:10:23;;;;;;;8.48;5.40;;;16.40;99.90;;;;;;4992861;28;20116;-78
2022/09/05 05:13:22;;;;;;;5.80;5.20;;;16.30;98.80;;;;;;5022372;28;20037;-80
2022/09/05 05:15:51;;;;;;;5.40;4.90;;;16.30;99.30;;;;;;5009011;28;20026;-78
2022/09/05 05:18:26;;;;;;;6.93;4.43;;;16.50;99.90;;;;;;5005109;28;20030;-78
2022/09/05 05:20:55;;;;;;;6.53;4.68;;;16.50;99.90;;;;;;4988698;28;20030;-78
2022/09/05 05:23:54;;;;;;;5.38;4.15;;;16.50;99.90;;;;;;4989651;28;20099;-79
2022/09/05 05:26:31;;;;;;;4.45;4.05;;;16.50;99.90;;;;;;4969736;28;20037;-80
2022/09/05 05:29:22;;;;;;;4.60;4.10;;;16.50;99.90;;;;;;4989242;28;20029;-87
2022/09/05 05:31:55;;;;;;;4.65;4.15;;;16.50;99.90;;;;;;5005604;28;20095;-86
2022/09/05 05:34:32;;;;;;;5.20;4.50;;;16.60;99.90;;;;;;4994532;28;20033;-84
2022/09/05 05:37:14;;;;;;;5.45;4.50;;;16.70;99.90;;;;;;4993367;28;20040;-86
2022/09/05 05:39:44;;;;;;;6.57;4.35;;;16.70;99.90;;;;;;4996568;28;20041;-86
2022/09/05 05:42:17;;;;;;;7.82;5.38;;;16.80;99.90;;;;;;5025764;28;20527;-85
2022/09/05 05:44:47;;;;;;;6.30;5.65;;;16.90;99.90;;;;;;5009228;28;20315;-88
2022/09/05 05:47:18;;;;;;;4.35;3.95;;;16.90;99.90;;;;;;5004198;28;20095;-87
2022/09/05 05:50:07;;;;;;;4.60;3.60;;;17.00;99.90;;;;;;4991220;28;20456;-85
2022/09/05 05:53:02;;;;;;;7.07;4.10;;;17.10;99.90;;;;;;5006753;28;20451;-86
2022/09/05 05:55:46;;;;;;;5.35;3.83;;;17.20;99.90;;;;;;5007876;28;20150;-85
2022/09/05 05:58:33;;;;;;;6.88;3.95;;;17.30;99.90;;;;;;5023077;28;20037;-84
2022/09/05 06:01:31;;;;;;;4.05;3.65;;;17.50;99.90;;;;;;5039862;28;20025;-86
2022/09/05 06:04:21;;;;;;;7.38;3.67;;;17.60;99.90;;;;;;5021310;28;20400;-85
2022/09/05 06:07:03;;;;;;;7.38;3.20;;;17.70;99.90;;;;;;5033807;28;20037;-84
2022/09/05 06:09:57;;;;;;;5.75;4.05;;;17.70;98.80;;;;;;5014004;28;20481;-83
2022/09/05 06:12:41;;;;;;;3.90;3.60;;;17.80;99.90;;;;;;5023126;28;20560;-84
2022/09/05 06:15:34;;;;;;;4.45;3.63;;;17.90;99.90;;;;;;5019296;28;20109;-84
2022/09/05 06:18:21;;;;;;;5.05;3.15;;;17.90;99.90;;;;;;5034338;28;20068;-83
2022/09/05 06:21:07;;;;;;;5.13;3.35;;;18.10;99.90;;;;;;5032252;28;20030;-83
2022/09/05 06:23:54;;;;;;;4.07;3.25;;;18.30;99.90;;;;;;5020288;28;20048;-83
2022/09/05 06:26:35;;;;;;;9.80;3.42;;;18.50;99.90;;;;;;5023119;28;20037;-83
2022/09/05 06:29:27;;;;;;;4.32;3.08;;;18.70;99.90;;;;;;5017786;28;20338;-83
2022/09/05 06:32:38;;;;;;;7.72;3.40;;;18.80;99.90;;;;;;5014746;28;20512;-84
2022/09/05 06:35:15;;;;;;;8.75;3.03;;;18.90;99.90;;;;;;5024883;28;20539;-84
2022/09/05 06:37:40;;;;;;;12.27;3.42;;;19.00;99.90;;;;;;5021410;28;20038;-84
2022/09/05 06:40:24;;;;;;;4.15;3.08;;;19.20;98.60;;;;;;5040175;28;20060;-84
2022/09/05 06:43:13;;;;;;;8.55;3.95;;;19.30;99.00;;;;;;5025090;28;20065;-84
2022/09/05 06:46:00;;;;;;;6.63;3.25;;;19.40;99.30;;;;;;5020784;28;20518;-85
2022/09/05 06:48:31;;;;;;;7.60;3.53;;;19.70;98.60;;;;;;5020257;28;20481;-85
2022/09/05 06:51:24;;;;;;;5.93;2.92;;;19.80;96.70;;;;;;4992127;28;20053;-84
2022/09/05 06:54:11;;;;;;;3.70;2.10;;;20.00;97.90;;;;;;5033918;28;20129;-85
2022/09/05 06:57:02;;;;;;;6.05;2.67;;;20.10;96.30;;;;;;5009802;28;20404;-84
2022/09/05 06:59:52;;;;;;;2.38;2.17;;;20.20;95.50;;;;;;5040270;28;20489;-82
2022/09/05 07:02:33;;;;;;;5.63;2.50;;;20.40;95.90;;;;;;5005262;28;20562;-82
2022/09/05 07:05:26;;;;;;;4.07;2.33;;;20.60;95.30;;;;;;5032876;28;20034;-83
2022/09/05 07:08:03;;;;;;;4.65;2.53;;;20.90;95.20;;;;;;5028135;28;20048;-81
2022/09/05 07:10:38;;;;;;;5.03;2.78;;;21.00;94.00;;;;;;4993938;28;20033;-81
2022/09/05 07:13:13;;;;;;;4.45;2.22;;;21.10;94.10;;;;;;5009276;28;20033;-81
2022/09/05 07:15:49;;;;;;;5.82;2.58;;;21.40;93.90;;;;;;5031606;28;20239;-82
2022/09/05 07:18:23;;;;;;;5.50;2.35;;;21.40;93.60;;;;;;5012586;28;20115;-83
2022/09/05 07:21:22;;;;;;;3.00;2.65;;;21.60;93.40;;;;;;5019817;28;20476;-81
2022/09/05 07:24:00;;;;;;;2.63;1.92;;;21.60;92.50;;;;;;5009907;28;20107;-81
2022/09/05 07:26:26;;;;;;;2.28;1.90;;;21.80;91.90;;;;;;5020363;28;20052;-81
2022/09/05 07:28:55;;;;;;;1.90;1.80;;;22.10;91.90;;;;;;5003555;28;20022;-83
2022/09/05 07:31:25;;;;;;;2.65;1.95;;;22.30;91.20;;;;;;5009827;28;20412;-83
2022/09/05 07:34:03;;;;;;;2.25;2.03;;;22.30;91.10;;;;;;5018767;28;20041;-83
2022/09/05 07:36:32;;;;;;;1.70;1.60;;;22.50;91.00;;;;;;4993410;28;20473;-83
2022/09/05 07:38:58;;;;;;;2.30;1.90;;;23.00;90.00;;;;;;5021381;28;20041;-83
2022/09/05 07:41:25;;;;;;;4.15;1.75;;;23.20;89.50;;;;;;5027720;28;20040;-81
2022/09/05 07:43:54;;;;;;;5.18;2.15;;;23.20;89.20;;;;;;5018157;28;20508;-81
2022/09/05 07:46:25;;;;;;;2.88;1.90;;;23.20;88.90;;;;;;5007822;28;20034;-83
2022/09/05 07:48:59;;;;;;;5.05;1.88;;;23.50;87.90;;;;;;5025823;28;20033;-81
2022/09/05 07:51:26;;;;;;;5.32;2.38;;;23.60;86.20;;;;;;5009201;28;20053;-81
2022/09/05 07:53:59;;;;;;;3.90;1.98;;;23.70;86.20;;;;;;5023227;28;20030;-81
2022/09/05 07:57:04;;;;;;;8.30;2.17;;;23.80;85.30;;;;;;5001423;28;20044;-81
2022/09/05 07:59:34;;;;;;;8.13;1.90;;;23.90;84.80;;;;;;4948900;28;20173;-81
2022/09/05 08:02:00;;;;;;;2.65;1.90;;;24.40;83.80;;;;;;5009383;28;20052;-82
2022/09/05 08:04:27;;;;;;;3.20;1.75;;;24.30;83.80;;;;;;5011486;28;20475;-81
2022/09/05 08:06:54;;;;;;;2.50;1.70;;;24.40;83.70;;;;;;5021069;28;20109;-80
2022/09/05 08:09:26;;;;;;;2.30;2.10;;;24.50;82.60;;;;;;4994021;28;20044;-81
2022/09/05 08:11:54;;;;;;;1.75;1.65;;;24.80;80.80;;;;;;5022471;28;20080;-82
2022/09/05 08:14:40;;;;;;;4.72;2.08;;;24.80;80.80;;;;;;5004208;28;20121;-79
2022/09/05 08:17:07;;;;;;;2.50;1.98;;;25.10;80.80;;;;;;4990241;28;20037;-79
2022/09/05 08:19:49;;;;;;;1.60;1.40;;;25.30;79.20;;;;;;5018499;28;20034;-81
2022/09/05 08:22:22;;;;;;;1.60;1.50;;;25.40;78.80;;;;;;5015316;28;20503;-80
2022/09/05 08:24:53;;;;;;;2.92;2.00;;;25.30;77.40;;;;;;4994883;28;20072;-80
2022/09/05 08:27:38;;;;;;;2.85;1.80;;;25.50;78.80;;;;;;5018214;28;20330;-80
2022/09/05 08:30:07;;;;;;;3.30;1.85;;;25.50;77.90;;;;;;5016649;28;20032;-80
2022/09/05 08:32:49;;;;;;;3.83;1.77;;;25.40;79.80;;;;;;4990371;28;20053;-80
2022/09/05 08:35:41;;;;;;;3.00;2.13;;;25.70;78.50;;;;;;4990462;28;20038;-80
2022/09/05 08:38:07;;;;;;;4.95;1.60;;;26.40;74.70;;;;;;5014509;28;20025;-81
2022/09/05 08:40:38;;;;;;;3.47;1.83;;;26.20;75.00;;;;;;5022802;28;20358;-81
2022/09/05 08:43:41;;;;;;;3.00;1.77;;;26.30;76.20;;;;;;5024994;28;20117;-79
2022/09/05 08:46:15;;;;;;;3.67;1.80;;;26.70;76.50;;;;;;5021103;28;20462;-79
2022/09/05 08:48:46;;;;;;;5.43;2.15;;;27.00;74.30;;;;;;5003970;28;20042;-80
2022/09/05 08:51:23;;;;;;;5.38;1.88;;;27.00;70.10;;;;;;5018948;28;20030;-79
2022/09/05 08:54:04;;;;;;;2.90;1.40;;;27.30;72.20;;;;;;5002779;28;20397;-80
2022/09/05 08:56:57;;;;;;;4.05;1.70;;;27.30;72.20;;;;;;5017788;28;20036;-80
2022/09/05 08:59:37;;;;;;;2.17;1.55;;;27.90;70.80;;;;;;5014449;28;20033;-79
2022/09/05 09:02:27;;;;;;;2.20;1.52;;;27.90;68.80;;;;;;5026658;28;20088;-80
2022/09/05 09:05:29;;;;;;;2.47;2.05;;;28.30;67.10;;;;;;5021150;28;20053;-80
2022/09/05 09:08:25;;;;;;;2.47;1.67;;;28.60;65.70;;;;;;5006921;28;20447;-79
2022/09/05 09:11:11;;;;;;;2.43;1.60;;;28.00;67.60;;;;;;5039322;28;20042;-79
2022/09/05 09:13:55;;;;;;;;;;;27.80;70.10;;;;;;4995964;28;20053;-79
2022/09/05 09:16:35;;;;;;;1.80;1.45;;;28.10;67.70;;;;;;5027429;28;19920;-79
2022/09/05 09:19:02;;;;;;;1.67;1.42;;;28.40;67.30;;;;;;5044328;28;20397;-79
2022/09/05 09:21:37;;;;;;;4.45;1.75;;;28.50;67.70;;;;;;5011186;28;20075;-80
2022/09/05 09:24:15;;;;;;;3.03;1.65;;;28.60;67.90;;;;;;5025504;28;20311;-80
2022/09/05 09:27:08;;;;;;;2.55;1.80;;;28.90;66.60;;;;;;5018200;28;20053;-81
2022/09/05 09:29:37;;;;;;;1.42;1.30;;;29.20;66.20;;;;;;5007563;28;20040;-80
2022/09/05 09:32:12;;;;;;;6.03;1.63;;;29.10;65.60;;;;;;4995625;28;20519;-81
2022/09/05 09:35:14;;;;;;;1.92;1.40;;;29.00;66.80;;;;;;4988167;28;20025;-81
2022/09/05 09:37:55;;;;;;;2.45;1.55;;;29.80;63.20;;;;;;4987705;28;20040;-82
2022/09/05 09:40:21;;;;;;;2.58;1.60;;;29.80;62.10;;;;;;5031364;28;20113;-81
2022/09/05 09:42:54;;;;;;;3.05;1.67;;;30.00;64.40;;;;;;5024319;28;20053;-82
2022/09/05 09:45:54;;;;;;;2.42;1.45;;;29.30;65.20;;;;;;4998886;28;20500;-82
2022/09/05 09:48:41;;;;;;;2.67;1.35;;;30.40;60.00;;;;;;5015447;28;20510;-82
2022/09/05 09:51:28;;;;;;;1.80;1.40;;;29.60;64.60;;;;;;5009311;28;20040;-81
2022/09/05 09:54:05;;;;;;;2.75;1.40;;;30.70;60.40;;;;;;5025566;28;20084;-82
2022/09/05 09:56:50;;;;;;;2.50;1.10;;;30.00;63.90;;;;;;5019441;28;20038;-83
2022/09/05 09:59:21;;;;;;;3.20;1.77;;;30.40;60.40;;;;;;5038130;28;20048;-82
2022/09/05 10:01:59;;;;;;;3.20;1.30;;;31.40;59.10;;;;;;5004450;28;20099;-83
2022/09/05 10:04:52;;;;;;;3.50;1.88;;;31.50;55.80;;;;;;5003886;28;20041;-82
2022/09/05 10:07:27;;;;;;;2.22;1.40;;;30.60;60.60;;;;;;5013396;28;20124;-83
2022/09/05 10:10:23;;;;;;;1.30;1.20;;;31.30;56.00;;;;;;5005701;28;20068;-84
2022/09/05 10:13:22;;;;;;;5.07;1.90;;;31.50;57.40;;;;;;5000143;28;20033;-84
2022/09/05 10:16:13;;;;;;;1.88;1.67;;;30.50;62.40;;;;;;5001120;28;20377;-84
2022/09/05 10:18:50;;;;;;;2.13;1.75;;;30.20;63.00;;;;;;5012398;28;20041;-82
2022/09/05 10:21:59;;;;;;;6.70;1.50;;;30.00;65.20;;;;;;5009438;28;20037;-83
2022/09/05 10:24:47;;;;;;;2.80;1.00;;;30.20;61.80;;;;;;4982980;28;20053;-83
2022/09/05 10:27:48;;;;;;;1.42;1.15;;;31.20;58.20;;;;;;5029638;28;20433;-83
2022/09/05 10:30:20;;;;;;;1.48;1.33;;;32.30;55.00;;;;;;5032682;28;20389;-83
2022/09/05 10:33:17;;;;;;;2.40;1.40;;;32.50;53.70;;;;;;5002069;28;20038;-83
2022/09/05 10:35:47;;;;;;;1.55;1.45;;;31.10;62.40;;;;;;5012579;28;20038;-84
2022/09/05 10:38:32;;;;;;;3.22;1.48;;;30.80;60.20;;;;;;5003826;28;20519;-84
2022/09/05 10:41:09;;;;;;;2.83;1.50;;;31.80;54.70;;;;;;5012107;28;20045;-83
2022/09/05 10:44:01;;;;;;;1.35;1.25;;;32.30;53.30;;;;;;5036556;28;20037;-84
2022/09/05 10:46:48;;;;;;;2.30;1.50;;;32.70;51.50;;;;;;4979234;28;20137;-84
2022/09/05 10:49:25;;;;;;;1.55;1.30;;;32.50;53.50;;;;;;5034728;28;20031;-84
2022/09/05 10:52:56;;;;;;;2.17;1.55;;;31.70;55.90;;;;;;5009643;28;20048;-85
2022/09/05 10:55:53;;;;;;;1.40;1.30;;;31.30;59.80;;;;;;4944729;28;20035;-84
2022/09/05 11:13:00;;;;;;;2.88;1.35;;;31.80;54.80;;;;;;4629681;28;10002308;-82
2022/09/05 11:15:41;;;;;;;1.60;1.50;;;31.90;58.70;;;;;;4914302;28;20517;-82
2022/09/05 11:18:32;;;;;;;1.98;1.70;;;31.60;59.60;;;;;;4940640;28;20030;-82
2022/09/05 11:21:00;;;;;;;1.75;1.30;;;31.40;60.00;;;;;;4952439;28;20103;-81
2022/09/05 11:23:46;;;;;;;1.88;1.50;;;31.40;57.30;;;;;;4948313;28;20077;-83
2022/09/05 11:33:11;;;;;;;2.00;1.63;;;31.40;57.70;;;;;;4980226;28;20567;-82
2022/09/05 11:35:45;;;;;;;1.40;1.30;;;31.40;58.00;;;;;;4948527;28;20023;-81
2022/09/05 11:38:38;;;;;;;1.50;1.38;;;31.50;58.00;;;;;;4977998;28;20030;-81
2022/09/05 11:41:41;;;;;;;2.55;1.55;;;31.70;58.00;;;;;;4980865;28;20031;-81
2022/09/05 11:44:38;;;;;;;7.80;1.98;;;31.70;57.30;;;;;;4952498;28;20076;-80
2022/09/05 11:47:13;;;;;;;4.65;1.48;;;31.70;58.30;;;;;;4948653;28;20038;-79
2022/09/05 11:49:42;;;;;;;3.80;1.67;;;31.90;58.10;;;;;;4950254;28;20038;-80
2022/09/05 11:52:39;;;;;;;1.83;1.48;;;31.90;57.90;;;;;;4624198;28;9999948;-79
2022/09/05 11:55:23;;;;;;;1.52;1.42;;;31.90;57.90;;;;;;4981094;28;20030;-79
2022/09/05 11:57:52;;;;;;;1.67;1.52;;;31.80;57.20;;;;;;4978049;28;20659;-79
2022/09/05 12:00:22;;;;;;;6.35;1.85;;;31.80;57.30;;;;;;4952017;28;20500;-78
2022/09/05 12:03:27;;;;;;;3.03;1.15;;;32.30;54.00;;;;;;4948217;28;20030;-78
2022/09/05 12:06:30;;;;;;;3.28;1.38;;;33.10;53.20;;;;;;4963878;28;20038;-78
2022/09/05 12:08:58;;;;;;;2.80;1.30;;;32.40;54.60;;;;;;4925425;28;20117;-77
2022/09/05 12:11:53;;;;;;;1.88;1.45;;;32.10;53.80;;;;;;4975362;28;20393;-77
2022/09/05 12:14:26;;;;;;;1.73;1.25;;;32.20;55.60;;;;;;4973778;28;20058;-78
2022/09/05 12:16:54;;;;;;;1.25;1.13;;;32.30;56.10;;;;;;4983241;28;20065;-77
2022/09/05 12:19:23;;;;;;;2.53;1.67;;;32.30;56.30;;;;;;4973515;28;20096;-76
2022/09/05 12:22:14;;;;;;;2.65;1.55;;;32.40;53.40;;;;;;4981033;28;20031;-77
2022/09/05 12:24:53;;;;;;;1.33;1.15;;;32.30;53.20;;;;;;4970296;28;20486;-76
2022/09/05 12:27:19;;;;;;;2.38;1.33;;;32.50;55.10;;;;;;4980705;28;20114;-78
2022/09/05 12:29:48;;;;;;;1.08;0.98;;;32.60;55.30;;;;;;4950177;28;20130;-76
2022/09/05 12:32:19;;;;;;;1.30;1.20;;;33.10;53.40;;;;;;4952922;28;20038;-77
2022/09/05 12:34:54;;;;;;;3.67;1.67;;;33.70;52.90;;;;;;4962680;28;20565;-78
2022/09/05 12:37:23;;;;;;;4.93;1.40;;;33.40;52.40;;;;;;4954545;28;20045;-76
2022/09/05 12:39:59;;;;;;;1.58;1.25;;;33.40;51.90;;;;;;4983190;28;20131;-77
2022/09/05 12:42:53;;;;;;;2.92;1.50;;;33.70;51.70;;;;;;4931274;28;20038;-76
2022/09/05 12:45:40;;;;;;;3.60;1.30;;;33.40;50.80;;;;;;4984294;28;20573;-76
2022/09/05 12:48:12;;;;;;;2.25;1.50;;;34.10;50.20;;;;;;4963045;28;20034;-77
2022/09/05 12:51:03;;;;;;;1.48;1.30;;;34.10;50.60;;;;;;4967730;28;20107;-78
2022/09/05 12:53:43;;;;;;;2.70;1.58;;;34.60;48.50;;;;;;4971222;28;20038;-78
2022/09/05 12:56:25;;;;;;;1.63;1.33;;;34.30;48.90;;;;;;4950568;28;20030;-78
2022/09/05 12:58:52;;;;;;;1.60;1.40;;;33.60;50.30;;;;;;4965533;28;20502;-76
2022/09/05 13:01:37;;;;;;;1.92;1.50;;;34.00;49.10;;;;;;4952191;28;20229;-75
2022/09/05 13:04:06;;;;;;;2.50;1.10;;;34.10;48.60;;;;;;4966295;28;20070;-75
2022/09/05 13:06:38;;;;;;;2.85;1.40;;;34.70;47.30;;;;;;4962866;28;20046;-76
2022/09/05 13:09:18;;;;;;;1.50;1.35;;;34.70;48.10;;;;;;4952714;28;20109;-75
2022/09/05 13:11:51;;;;;;;3.42;1.30;;;34.50;49.40;;;;;;4944718;28;20405;-76
2022/09/05 13:14:27;;;;;;;2.55;1.52;;;34.00;50.50;;;;;;4955039;28;20375;-76
2022/09/05 13:16:52;;;;;;;1.38;1.23;;;33.60;51.20;;;;;;4951209;28;20035;-76
2022/09/05 13:19:31;;;;;;;3.88;1.75;;;33.40;51.30;;;;;;4964645;28;20058;-75
2022/09/05 13:21:57;;;;;;;1.23;1.00;;;34.20;49.30;;;;;;4954384;28;20041;-76
2022/09/05 13:24:29;;;;;;;3.50;1.50;;;33.80;50.70;;;;;;4946792;28;20026;-75
2022/09/05 13:27:05;;;;;;;1.52;1.42;;;33.60;49.80;;;;;;4939923;28;20039;-76
2022/09/05 13:29:53;;;;;;;2.63;1.15;;;33.30;50.20;;;;;;4939509;28;20034;-76
2022/09/05 13:32:24;;;;;;;2.80;1.55;;;33.80;49.90;;;;;;4965387;28;20118;-76
2022/09/05 13:34:55;;;;;;;3.17;1.17;;;35.10;45.50;;;;;;4976095;28;20035;-76
2022/09/05 13:37:27;;;;;;;2.83;1.67;;;35.50;47.00;;;;;;4944534;28;20073;-76
2022/09/05 13:39:55;;;;;;;4.60;1.70;;;34.90;48.20;;;;;;4963529;28;20046;-75
2022/09/05 13:42:24;;;;;;;2.65;1.50;;;34.00;49.70;;;;;;4950360;28;20422;-76
2022/09/05 13:44:56;;;;;;;1.92;1.17;;;33.80;49.50;;;;;;4957649;28;20023;-76
2022/09/05 13:47:34;;;;;;;2.20;1.50;;;33.70;49.50;;;;;;4932256;28;20062;-75
2022/09/05 13:50:06;;;;;;;1.52;1.40;;;33.70;49.50;;;;;;4981669;28;20031;-77
2022/09/05 13:52:44;;;;;;;1.50;1.40;;;33.50;49.60;;;;;;4959040;28;20034;-75
2022/09/05 13:55:20;;;;;;;3.85;1.30;;;33.80;49.30;;;;;;4942315;28;20028;-76
2022/09/05 13:58:09;;;;;;;3.20;1.42;;;35.20;45.80;;;;;;4943562;28;20030;-77
2022/09/05 14:00:37;;;;;;;2.83;1.50;;;34.90;48.00;;;;;;4975048;28;20112;-75
2022/09/05 14:03:27;;;;;;;1.38;1.20;;;34.30;49.20;;;;;;4976642;28;20034;-76
2022/09/05 14:06:01;;;;;;;2.65;1.30;;;34.90;48.30;;;;;;4979166;28;21331;-75
2022/09/05 14:08:49;;;;;;;1.30;1.20;;;34.80;48.50;;;;;;4950354;28;20826;-74
2022/09/05 14:11:17;;;;;;;2.40;1.52;;;34.50;49.30;;;;;;4967854;28;20517;-76
2022/09/05 14:14:07;;;;;;;2.53;1.40;;;34.10;48.60;;;;;;4966666;28;20130;-75
2022/09/05 14:16:35;;;;;;;1.38;1.17;;;34.10;49.30;;;;;;4975542;28;20171;-76
2022/09/05 14:21:45;;;;;;;1.42;1.30;;;34.80;48.80;;;;;;4953269;28;20022;-74
2022/09/05 14:24:17;;;;;;;2.53;1.20;;;34.80;49.00;;;;;;4963006;28;20470;-76